Terminal Aerodrome Forecast
Issued by NWS Bismarck, ND

Home | Current Version | Previous Version | Text Only | Print | Product List | Glossary Off
Versions: 1 2 3 4 5 6 7 8 9 10 11 12 13 14 15

000
FTUS43 KBIS 230500
TAFBIS
TAF
KBIS 230534Z 2306/2406 34016KT 2SM -SN BR OVC008
      TEMPO 2306/2310 1SM -SN BR OVC004
     FM231200 33014KT 4SM -SN BR OVC008
     FM231800 32014KT P6SM OVC012
     FM240100 31006KT P6SM OVC020=

USA.gov is the U.S. government's official web portal to all federal, state and local government web resources and services.